createdAt,value
2017-12-29T00:01:51.019Z,3.88
2017-12-29T00:04:25.995Z,3.89
2017-12-29T00:07:01.296Z,3.92
2017-12-29T00:09:36.178Z,3.90
2017-12-29T00:12:10.599Z,3.90
2017-12-29T00:14:45.790Z,3.91
2017-12-29T00:17:20.595Z,3.92
2017-12-29T00:19:55.759Z,3.97
2017-12-29T00:22:30.831Z,4.00
2017-12-29T00:25:05.515Z,3.98
2017-12-29T00:27:40.217Z,4.00
2017-12-29T00:30:15.487Z,3.98
2017-12-29T00:32:49.911Z,4.00
2017-12-29T00:35:24.910Z,3.92
2017-12-29T00:37:59.690Z,3.95
2017-12-29T00:40:34.371Z,3.99
2017-12-29T00:43:09.247Z,4.01
2017-12-29T00:45:43.642Z,4.02
2017-12-29T00:48:18.885Z,4.02
2017-12-29T00:50:53.923Z,4.01
2017-12-29T00:53:28.328Z,4.01
2017-12-29T00:56:03.136Z,3.94
2017-12-29T00:58:38.228Z,3.91
2017-12-29T01:01:13.387Z,3.94
2017-12-29T01:03:57.703Z,3.90
2017-12-29T01:06:32.315Z,3.86
2017-12-29T01:09:07.264Z,3.83
2017-12-29T01:11:42.043Z,3.86
2017-12-29T01:14:16.818Z,3.85
2017-12-29T01:16:51.434Z,3.81
2017-12-29T01:19:26.392Z,3.79
2017-12-29T01:22:01.319Z,3.80
2017-12-29T01:24:36.598Z,3.83
2017-12-29T01:27:11.311Z,3.85
2017-12-29T01:29:46.607Z,3.87
2017-12-29T01:32:21.751Z,3.85
2017-12-29T01:34:56.847Z,3.75
2017-12-29T01:37:31.803Z,3.66
2017-12-29T01:40:06.688Z,3.71
2017-12-29T01:42:41.643Z,3.70
2017-12-29T01:45:16.754Z,3.73
2017-12-29T01:47:58.655Z,3.71
2017-12-29T01:50:33.456Z,3.73
2017-12-29T01:53:08.223Z,3.78
2017-12-29T01:55:42.977Z,3.71
2017-12-29T01:58:18.174Z,3.71
2017-12-29T02:00:53.151Z,3.71
2017-12-29T02:03:28.007Z,3.75
2017-12-29T02:06:03.003Z,3.79
2017-12-29T02:08:38.105Z,3.80
2017-12-29T02:11:12.847Z,3.82
2017-12-29T02:13:47.623Z,3.87
2017-12-29T02:16:22.539Z,3.93
2017-12-29T02:18:56.998Z,3.93
2017-12-29T02:21:31.979Z,3.99
2017-12-29T02:24:06.759Z,4.03
2017-12-29T02:26:41.735Z,4.05
2017-12-29T02:29:16.547Z,4.08
2017-12-29T02:31:51.582Z,4.06
2017-12-29T02:34:26.448Z,4.06
2017-12-29T02:37:01.172Z,4.10
2017-12-29T02:39:36.089Z,4.16
2017-12-29T02:42:11.128Z,4.19
2017-12-29T02:44:46.254Z,4.19
2017-12-29T02:47:21.260Z,4.15
2017-12-29T02:49:56.196Z,4.11
2017-12-29T02:52:31.112Z,4.08
2017-12-29T02:55:06.223Z,4.03
2017-12-29T02:57:41.452Z,4.06
2017-12-29T03:00:16.689Z,4.06
2017-12-29T03:02:52.136Z,4.06
2017-12-29T03:05:27.454Z,4.06
2017-12-29T03:08:02.430Z,4.07
2017-12-29T03:10:37.468Z,4.09
2017-12-29T03:13:12.443Z,4.08
2017-12-29T03:15:47.242Z,4.02
2017-12-29T03:18:22.247Z,3.98
2017-12-29T03:20:56.752Z,3.99
2017-12-29T03:23:31.907Z,4.03
2017-12-29T03:26:06.658Z,4.01
2017-12-29T03:28:41.492Z,4.00
2017-12-29T03:31:16.571Z,4.05
2017-12-29T03:33:51.344Z,4.07
2017-12-29T03:36:26.154Z,4.09
2017-12-29T03:39:01.223Z,4.08
2017-12-29T03:41:36.056Z,4.06
2017-12-29T03:44:11.237Z,4.06
2017-12-29T03:46:46.187Z,4.03
2017-12-29T03:49:21.152Z,4.02
2017-12-29T03:51:56.036Z,4.00
2017-12-29T03:54:31.362Z,4.00
2017-12-29T03:57:06.020Z,3.98
2017-12-29T03:59:41.223Z,3.98
2017-12-29T04:02:15.703Z,3.94
2017-12-29T04:04:51.115Z,3.91
2017-12-29T04:07:26.296Z,3.91
2017-12-29T04:10:01.651Z,3.84
2017-12-29T04:12:36.802Z,3.81
2017-12-29T04:15:11.899Z,3.81
2017-12-29T04:17:46.950Z,3.76
2017-12-29T04:20:22.079Z,3.72
2017-12-29T04:22:56.951Z,3.66
2017-12-29T04:25:32.318Z,3.63
2017-12-29T04:28:07.579Z,3.59
2017-12-29T04:30:42.178Z,3.54
2017-12-29T04:33:17.255Z,3.51
2017-12-29T04:35:52.318Z,3.46
2017-12-29T04:38:27.024Z,3.46
2017-12-29T04:41:01.995Z,3.47
2017-12-29T04:43:37.179Z,3.48
2017-12-29T04:46:12.284Z,3.45
2017-12-29T04:48:47.151Z,3.42
2017-12-29T04:51:22.149Z,3.46
2017-12-29T04:53:57.185Z,3.39
2017-12-29T04:56:31.999Z,3.40
2017-12-29T04:59:06.868Z,3.39
2017-12-29T05:01:41.759Z,3.41
2017-12-29T05:04:16.751Z,3.35
2017-12-29T05:06:51.930Z,3.36
2017-12-29T05:09:27.250Z,3.29
2017-12-29T05:12:02.411Z,3.25
2017-12-29T05:14:37.462Z,3.27
2017-12-29T05:17:12.271Z,3.27
2017-12-29T05:19:47.114Z,3.25
2017-12-29T05:22:22.332Z,3.24
2017-12-29T05:24:57.577Z,3.17
2017-12-29T05:27:31.889Z,3.13
2017-12-29T05:30:06.551Z,3.08
2017-12-29T05:32:41.456Z,3.06
2017-12-29T05:35:16.706Z,3.07
2017-12-29T05:37:51.815Z,3.06
2017-12-29T05:40:26.914Z,3.05
2017-12-29T05:43:01.736Z,2.98
2017-12-29T05:45:37.075Z,2.96
2017-12-29T05:48:11.499Z,3.03
2017-12-29T05:50:46.358Z,3.01
2017-12-29T05:53:21.124Z,2.99
2017-12-29T05:55:55.867Z,2.96
2017-12-29T05:58:30.991Z,2.91
2017-12-29T06:01:05.863Z,2.91
2017-12-29T06:03:40.551Z,2.90
2017-12-29T06:06:15.675Z,2.84
2017-12-29T06:08:50.607Z,2.79
2017-12-29T06:11:25.504Z,2.82
2017-12-29T06:14:00.539Z,2.78
2017-12-29T06:16:35.659Z,2.76
2017-12-29T06:19:11.070Z,2.74
2017-12-29T06:21:46.139Z,2.68
2017-12-29T06:24:20.619Z,2.63
2017-12-29T06:26:55.692Z,2.59
2017-12-29T06:29:30.808Z,2.59
2017-12-29T06:32:05.346Z,2.61
2017-12-29T06:34:40.480Z,2.61
2017-12-29T06:37:15.211Z,2.59
2017-12-29T06:39:50.568Z,2.58
2017-12-29T06:42:25.672Z,2.60
2017-12-29T06:45:00.832Z,2.61
2017-12-29T06:47:35.853Z,2.59
2017-12-29T06:50:10.831Z,2.54
2017-12-29T06:52:45.852Z,2.49
2017-12-29T06:55:20.739Z,2.50
2017-12-29T06:57:55.506Z,2.48
2017-12-29T07:00:30.491Z,2.45
2017-12-29T07:03:05.363Z,2.49
2017-12-29T07:05:40.166Z,2.49
2017-12-29T07:08:15.348Z,2.48
2017-12-29T07:10:50.279Z,2.47
2017-12-29T07:13:25.599Z,2.50
2017-12-29T07:16:00.467Z,2.48
2017-12-29T07:18:35.615Z,2.51
2017-12-29T07:21:10.570Z,2.51
2017-12-29T07:23:45.439Z,2.52
2017-12-29T07:26:20.395Z,2.53
2017-12-29T07:28:55.189Z,2.52
2017-12-29T07:31:30.187Z,2.50
2017-12-29T07:34:05.152Z,2.48
2017-12-29T07:36:39.923Z,2.54
2017-12-29T07:39:15.252Z,2.58
2017-12-29T07:41:50.370Z,2.62
2017-12-29T07:44:25.158Z,2.67
2017-12-29T07:47:00.127Z,2.72
2017-12-29T07:49:34.855Z,2.68
2017-12-29T07:52:09.479Z,2.65
2017-12-29T07:54:44.651Z,2.62
2017-12-29T07:57:19.681Z,2.59
2017-12-29T07:59:55.020Z,2.56
2017-12-29T08:02:30.070Z,2.61
2017-12-29T08:05:05.274Z,2.59
2017-12-29T08:07:40.070Z,2.56
2017-12-29T08:10:14.791Z,2.56
2017-12-29T08:12:51.303Z,2.59
2017-12-29T08:15:25.919Z,2.60
2017-12-29T08:18:00.795Z,2.58
2017-12-29T08:20:35.757Z,2.62
2017-12-29T08:23:10.554Z,2.65
2017-12-29T08:25:45.521Z,2.66
2017-12-29T08:28:20.316Z,2.67
2017-12-29T08:30:55.048Z,2.70
2017-12-29T08:33:30.163Z,2.72
2017-12-29T08:36:05.198Z,2.71
2017-12-29T08:38:40.123Z,2.73
2017-12-29T08:41:15.252Z,2.81
2017-12-29T08:43:50.251Z,2.87
2017-12-29T08:46:25.059Z,2.88
2017-12-29T08:48:59.984Z,2.92
2017-12-29T08:51:34.806Z,2.99
2017-12-29T08:54:09.634Z,3.11
2017-12-29T08:56:44.607Z,3.11
2017-12-29T08:59:19.967Z,3.20
2017-12-29T09:01:55.155Z,3.27
2017-12-29T09:04:30.027Z,3.34
2017-12-29T09:07:04.834Z,3.44
2017-12-29T09:09:39.379Z,3.50
2017-12-29T09:12:14.476Z,3.58
2017-12-29T09:14:49.502Z,3.72
2017-12-29T09:17:24.383Z,3.91
2017-12-29T09:19:59.192Z,4.02
2017-12-29T09:22:34.291Z,4.13
2017-12-29T09:25:09.367Z,4.28
2017-12-29T09:27:44.163Z,4.43
2017-12-29T09:30:18.896Z,4.70
2017-12-29T09:32:53.743Z,4.94
2017-12-29T09:35:28.504Z,5.11
2017-12-29T09:38:03.694Z,5.18
2017-12-29T09:40:38.684Z,5.18
2017-12-29T09:43:13.507Z,5.34
2017-12-29T09:45:48.234Z,5.47
2017-12-29T09:48:23.319Z,5.64
2017-12-29T09:50:58.291Z,5.72
2017-12-29T09:53:33.567Z,5.94
2017-12-29T09:56:08.562Z,6.08
2017-12-29T09:58:43.863Z,6.26
2017-12-29T10:01:18.854Z,6.57
2017-12-29T10:03:54.064Z,6.72
2017-12-29T10:06:28.991Z,6.72
2017-12-29T10:09:03.378Z,6.59
2017-12-29T10:11:38.746Z,6.50
2017-12-29T10:14:13.491Z,6.55
2017-12-29T10:16:48.255Z,6.60
2017-12-29T10:19:23.418Z,6.57
2017-12-29T10:21:58.078Z,6.64
2017-12-29T10:24:33.436Z,6.64
2017-12-29T10:27:08.567Z,6.75
2017-12-29T10:29:43.330Z,6.84
2017-12-29T10:32:18.095Z,6.98
2017-12-29T10:34:52.967Z,7.15
2017-12-29T10:37:27.907Z,7.24
2017-12-29T10:40:02.724Z,7.13
2017-12-29T10:42:37.403Z,7.32
2017-12-29T10:45:12.326Z,7.44
2017-12-29T10:47:47.124Z,7.44
2017-12-29T10:50:21.999Z,7.27
2017-12-29T10:52:56.831Z,7.28
2017-12-29T10:55:31.606Z,7.27
2017-12-29T10:58:06.762Z,7.18
2017-12-29T11:00:41.724Z,7.16
2017-12-29T11:03:16.321Z,7.04
2017-12-29T11:05:51.351Z,7.18
2017-12-29T11:08:26.266Z,7.32
2017-12-29T11:11:01.607Z,7.21
2017-12-29T11:13:36.742Z,7.28
2017-12-29T11:16:11.311Z,7.47
2017-12-29T11:18:46.483Z,7.46
2017-12-29T11:21:21.362Z,7.55
2017-12-29T11:23:56.408Z,7.72
2017-12-29T11:26:31.327Z,7.88
2017-12-29T11:29:06.221Z,8.08
2017-12-29T11:31:40.604Z,8.22
2017-12-29T11:34:15.951Z,8.21
2017-12-29T11:36:50.728Z,8.30
2017-12-29T11:39:25.988Z,8.37
2017-12-29T11:42:00.843Z,8.51
2017-12-29T11:44:35.559Z,8.33
2017-12-29T11:47:10.695Z,8.26
2017-12-29T11:49:45.641Z,8.19
2017-12-29T11:52:20.561Z,7.92
2017-12-29T11:54:55.346Z,8.02
2017-12-29T11:57:30.240Z,8.15
2017-12-29T12:00:04.410Z,8.26
2017-12-29T12:02:39.491Z,8.22
2017-12-29T12:05:14.334Z,8.13
2017-12-29T12:07:49.299Z,8.12
2017-12-29T12:10:24.195Z,7.92
2017-12-29T12:12:59.047Z,7.74
2017-12-29T12:15:33.532Z,7.78
2017-12-29T12:18:08.103Z,7.84
2017-12-29T12:20:43.427Z,7.93
2017-12-29T12:23:18.686Z,8.00
2017-12-29T12:25:53.916Z,8.02
2017-12-29T12:28:28.717Z,8.00
2017-12-29T12:31:03.686Z,8.03
2017-12-29T12:33:38.782Z,8.05
2017-12-29T12:36:13.918Z,7.88
2017-12-29T12:38:49.043Z,7.91
2017-12-29T12:41:23.779Z,7.66
2017-12-29T12:43:58.755Z,7.86
2017-12-29T12:46:33.606Z,8.06
2017-12-29T12:49:08.732Z,7.88
2017-12-29T12:51:43.719Z,7.78
2017-12-29T12:54:18.571Z,7.66
2017-12-29T12:56:53.042Z,7.54
2017-12-29T12:59:28.176Z,7.45
2017-12-29T13:02:02.932Z,7.17
2017-12-29T13:04:37.675Z,7.06
2017-12-29T13:07:12.448Z,7.22
2017-12-29T13:09:47.158Z,7.11
2017-12-29T13:12:22.148Z,7.02
2017-12-29T13:14:57.194Z,7.06
2017-12-29T13:17:32.079Z,6.84
2017-12-29T13:20:07.597Z,6.87
2017-12-29T13:22:42.570Z,6.93
2017-12-29T13:25:17.662Z,7.06
2017-12-29T13:27:52.468Z,6.94
2017-12-29T13:30:27.336Z,6.67
2017-12-29T13:33:02.103Z,6.56
2017-12-29T13:35:36.972Z,6.62
2017-12-29T13:38:12.155Z,6.44
2017-12-29T13:40:47.230Z,6.31
2017-12-29T13:43:22.264Z,6.30
2017-12-29T13:45:57.314Z,6.31
2017-12-29T13:48:32.142Z,6.17
2017-12-29T13:51:07.171Z,6.03
2017-12-29T13:53:42.427Z,5.77
2017-12-29T13:56:17.319Z,5.72
2017-12-29T13:58:52.307Z,5.62
2017-12-29T14:01:27.168Z,5.55
2017-12-29T14:04:02.564Z,5.54
2017-12-29T14:06:37.507Z,5.49
2017-12-29T14:09:12.304Z,5.45
2017-12-29T14:11:47.112Z,5.41
2017-12-29T14:14:21.842Z,5.37
2017-12-29T14:16:56.816Z,5.31
2017-12-29T14:19:31.612Z,5.33
2017-12-29T14:22:06.414Z,5.29
2017-12-29T14:24:41.371Z,5.26
2017-12-29T14:27:15.926Z,5.12
2017-12-29T14:29:51.098Z,5.23
2017-12-29T14:32:26.031Z,5.20
2017-12-29T14:35:00.976Z,5.22
2017-12-29T14:37:35.817Z,5.12
2017-12-29T14:40:10.444Z,5.04
2017-12-29T14:42:44.996Z,5.00
2017-12-29T14:45:20.346Z,4.92
2017-12-29T14:47:55.283Z,4.86
2017-12-29T14:50:30.326Z,4.87
2017-12-29T14:53:05.431Z,4.90
2017-12-29T14:55:40.759Z,4.83
2017-12-29T14:58:16.043Z,4.77
2017-12-29T15:00:50.919Z,4.74
2017-12-29T15:03:25.428Z,4.73
2017-12-29T15:06:00.300Z,4.68
2017-12-29T15:08:35.361Z,4.67
2017-12-29T15:11:10.364Z,4.59
2017-12-29T15:13:45.264Z,4.61
2017-12-29T15:16:20.611Z,4.58
2017-12-29T15:18:55.459Z,4.54
2017-12-29T15:21:30.281Z,4.57
2017-12-29T15:24:05.123Z,4.54
2017-12-29T15:26:39.824Z,4.53
2017-12-29T15:29:14.580Z,4.48
2017-12-29T15:31:48.828Z,4.46
2017-12-29T15:34:23.939Z,4.47
2017-12-29T15:36:58.747Z,4.46
2017-12-29T15:39:33.619Z,4.45
2017-12-29T15:42:08.088Z,4.46
2017-12-29T15:44:43.138Z,4.44
2017-12-29T15:47:18.139Z,4.35
2017-12-29T15:49:53.010Z,4.39
2017-12-29T15:52:28.353Z,4.40
2017-12-29T15:55:02.978Z,4.41
2017-12-29T15:57:37.379Z,4.29
2017-12-29T16:00:12.351Z,4.24
2017-12-29T16:02:46.735Z,4.16
2017-12-29T16:05:21.783Z,4.19
2017-12-29T16:07:56.715Z,4.21
2017-12-29T16:10:31.384Z,4.24
2017-12-29T16:13:06.223Z,4.20
2017-12-29T16:15:41.272Z,4.19
2017-12-29T16:18:16.365Z,4.20
2017-12-29T16:20:51.028Z,4.20
2017-12-29T16:23:25.917Z,4.13
2017-12-29T16:26:00.833Z,4.10
2017-12-29T16:28:35.715Z,4.09
2017-12-29T16:31:10.511Z,4.11
2017-12-29T16:33:45.195Z,4.04
2017-12-29T16:36:19.891Z,4.06
2017-12-29T16:38:54.583Z,4.03
2017-12-29T16:41:29.375Z,4.02
2017-12-29T16:44:04.383Z,4.05
2017-12-29T16:46:39.260Z,4.06
2017-12-29T16:49:14.224Z,4.08
2017-12-29T16:51:49.211Z,4.08
2017-12-29T16:54:24.024Z,4.07
2017-12-29T16:56:59.099Z,4.07
2017-12-29T16:59:33.954Z,4.06
2017-12-29T17:02:09.103Z,4.04
2017-12-29T17:04:44.194Z,4.03
2017-12-29T17:07:19.172Z,3.96
2017-12-29T17:09:53.967Z,3.86
2017-12-29T17:12:29.131Z,3.77
2017-12-29T17:15:03.944Z,3.71
2017-12-29T17:17:38.698Z,3.63
2017-12-29T17:20:13.591Z,3.53
2017-12-29T17:22:48.331Z,3.48
2017-12-29T17:25:23.291Z,3.42
2017-12-29T17:27:58.107Z,3.39
2017-12-29T17:30:32.652Z,3.30
2017-12-29T17:33:07.942Z,3.26
2017-12-29T17:35:42.708Z,3.17
2017-12-29T17:38:17.492Z,3.13
2017-12-29T17:40:52.460Z,3.10
2017-12-29T17:43:27.056Z,3.08
2017-12-29T17:46:01.951Z,3.03
2017-12-29T17:48:36.823Z,3.01
2017-12-29T17:51:11.720Z,2.97
2017-12-29T17:53:46.530Z,2.96
2017-12-29T17:56:21.446Z,2.96
2017-12-29T17:58:55.835Z,3.01
2017-12-29T18:01:30.807Z,3.00
2017-12-29T18:04:05.743Z,2.92
2017-12-29T18:06:40.666Z,2.91
2017-12-29T18:09:16.769Z,2.89
2017-12-29T18:11:51.547Z,2.88
2017-12-29T18:14:26.344Z,2.81
2017-12-29T18:17:01.279Z,2.79
2017-12-29T18:19:36.367Z,2.81
2017-12-29T18:22:11.432Z,2.72
2017-12-29T18:24:46.469Z,2.75
2017-12-29T18:27:21.247Z,2.74
2017-12-29T18:29:56.427Z,2.82
2017-12-29T18:32:31.547Z,2.84
2017-12-29T18:35:06.416Z,2.78
2017-12-29T18:37:41.735Z,2.75
2017-12-29T18:40:16.993Z,2.73
2017-12-29T18:42:52.032Z,2.64
2017-12-29T18:45:27.355Z,2.62
2017-12-29T18:48:02.487Z,2.57
2017-12-29T18:50:37.323Z,2.52
2017-12-29T18:53:12.294Z,2.53
2017-12-29T18:55:47.251Z,2.61
2017-12-29T18:58:22.134Z,2.57
2017-12-29T19:00:56.713Z,2.49
2017-12-29T19:03:31.616Z,2.42
2017-12-29T19:06:06.604Z,2.45
2017-12-29T19:08:41.338Z,2.53
2017-12-29T19:11:16.403Z,2.43
2017-12-29T19:13:51.267Z,2.65
2017-12-29T19:16:26.202Z,2.73
2017-12-29T19:19:01.080Z,2.71
2017-12-29T19:21:36.020Z,2.65
2017-12-29T19:24:10.875Z,2.65
2017-12-29T19:26:45.800Z,2.64
2017-12-29T19:29:20.188Z,2.61
2017-12-29T19:31:55.054Z,2.73
2017-12-29T19:34:29.954Z,2.74
2017-12-29T19:37:05.295Z,2.74
2017-12-29T19:39:40.584Z,2.74
2017-12-29T19:42:15.564Z,2.77
2017-12-29T19:44:50.952Z,2.82
2017-12-29T19:47:25.911Z,2.84
2017-12-29T19:50:01.125Z,2.85
2017-12-29T19:52:36.236Z,2.92
2017-12-29T19:55:11.115Z,2.90
2017-12-29T19:57:46.512Z,2.97
2017-12-29T20:00:21.275Z,3.00
2017-12-29T20:02:56.204Z,3.06
2017-12-29T20:05:30.902Z,3.04
2017-12-29T20:08:05.872Z,2.98
2017-12-29T20:10:40.915Z,2.98
2017-12-29T20:13:15.734Z,2.98
2017-12-29T20:15:50.445Z,3.06
2017-12-29T20:18:25.262Z,3.07
2017-12-29T20:21:00.032Z,3.05
2017-12-29T20:23:35.146Z,3.02
2017-12-29T20:26:10.122Z,3.04
2017-12-29T20:28:44.826Z,3.02
2017-12-29T20:31:20.089Z,3.05
2017-12-29T20:33:54.898Z,3.13
2017-12-29T20:36:29.867Z,3.13
2017-12-29T20:39:04.472Z,3.27
2017-12-29T20:41:39.691Z,3.13
2017-12-29T20:44:15.015Z,3.07
2017-12-29T20:46:50.106Z,3.04
2017-12-29T20:49:24.719Z,3.04
2017-12-29T20:51:59.595Z,3.08
2017-12-29T20:54:34.623Z,3.11
2017-12-29T20:57:09.215Z,3.29
2017-12-29T20:59:44.531Z,3.36
2017-12-29T21:02:19.475Z,3.30
2017-12-29T21:04:54.502Z,3.22
2017-12-29T21:07:29.135Z,3.28
2017-12-29T21:10:04.260Z,3.24
2017-12-29T21:12:39.223Z,3.30
2017-12-29T21:15:14.111Z,3.32
2017-12-29T21:17:48.679Z,3.39
2017-12-29T21:20:23.661Z,3.44
2017-12-29T21:22:58.387Z,3.42
2017-12-29T21:25:33.115Z,3.45
2017-12-29T21:28:07.846Z,3.45
2017-12-29T21:30:42.700Z,3.40
2017-12-29T21:33:17.721Z,3.43
2017-12-29T21:35:52.661Z,3.55
2017-12-29T21:38:27.623Z,3.59
2017-12-29T21:41:02.926Z,3.52
2017-12-29T21:43:37.786Z,3.47
2017-12-29T21:46:12.396Z,3.57
2017-12-29T21:48:47.415Z,3.59
2017-12-29T21:51:22.280Z,3.64
2017-12-29T21:53:57.498Z,3.68
2017-12-29T21:56:32.486Z,3.71
2017-12-29T21:59:07.544Z,3.77
2017-12-29T22:01:42.629Z,3.78
2017-12-29T22:04:17.595Z,3.75
2017-12-29T22:06:51.976Z,3.82
2017-12-29T22:09:26.902Z,3.82
2017-12-29T22:12:02.171Z,3.72
2017-12-29T22:14:37.604Z,3.72
2017-12-29T22:17:12.371Z,3.75
2017-12-29T22:19:47.381Z,3.79
2017-12-29T22:22:22.300Z,3.88
2017-12-29T22:24:57.544Z,3.87
2017-12-29T22:27:32.654Z,3.85
2017-12-29T22:30:07.874Z,3.82
2017-12-29T22:32:42.939Z,3.88
2017-12-29T22:35:17.591Z,3.88
2017-12-29T22:37:52.502Z,3.84
2017-12-29T22:40:27.224Z,3.94
2017-12-29T22:43:02.112Z,3.95
2017-12-29T22:45:37.130Z,4.01
2017-12-29T22:48:11.941Z,3.99
2017-12-29T22:50:46.558Z,4.03
2017-12-29T22:53:21.478Z,4.06
2017-12-29T22:55:56.368Z,4.14
2017-12-29T22:58:31.254Z,4.14
2017-12-29T23:01:06.173Z,4.14
2017-12-29T23:03:41.347Z,4.22
2017-12-29T23:06:16.681Z,4.21
2017-12-29T23:08:51.901Z,4.18
2017-12-29T23:11:26.837Z,4.18
2017-12-29T23:14:01.874Z,4.13
2017-12-29T23:16:36.546Z,4.08
2017-12-29T23:19:11.639Z,4.01
2017-12-29T23:21:46.720Z,4.05
2017-12-29T23:24:21.320Z,4.04
2017-12-29T23:26:56.439Z,4.03
2017-12-29T23:29:30.955Z,4.04
2017-12-29T23:32:06.015Z,3.96
2017-12-29T23:34:41.331Z,3.92
2017-12-29T23:37:16.071Z,4.01
2017-12-29T23:39:50.935Z,4.04
2017-12-29T23:42:25.488Z,4.07
2017-12-29T23:45:00.455Z,4.05
2017-12-29T23:47:35.479Z,4.12
2017-12-29T23:50:10.351Z,4.16
2017-12-29T23:52:45.315Z,4.17
2017-12-29T23:55:20.226Z,4.17
2017-12-29T23:57:54.964Z,4.23
